createdAt,value
2019-05-21T07:13:32.894Z,22.78
2019-05-21T07:14:05.025Z,22.78
2019-05-21T07:14:37.085Z,22.81
2019-05-21T07:15:09.190Z,22.85
2019-05-21T07:15:41.328Z,22.85
2019-05-21T07:16:13.392Z,22.82
2019-05-21T07:16:45.507Z,22.79
2019-05-21T07:17:17.608Z,22.81
2019-05-21T07:17:49.722Z,22.82
2019-05-21T07:18:21.837Z,22.81
2019-05-21T07:18:53.882Z,22.75
2019-05-21T07:19:26.009Z,22.78
2019-05-21T07:19:58.124Z,22.79
2019-05-21T07:20:30.226Z,22.82
2019-05-21T07:21:02.304Z,22.84
2019-05-21T07:21:34.346Z,22.84
2019-05-21T07:22:12.449Z,22.86
2019-05-21T07:22:45.426Z,22.79
2019-05-21T07:23:17.753Z,22.84
2019-05-21T07:23:49.858Z,22.84
2019-05-21T07:24:21.954Z,22.86
2019-05-21T07:24:54.018Z,22.81
2019-05-21T07:25:26.103Z,22.81
2019-05-21T07:25:58.219Z,22.89
2019-05-21T07:26:30.340Z,22.85
2019-05-21T07:27:02.437Z,22.82
2019-05-21T07:27:34.513Z,22.82
2019-05-21T07:28:06.619Z,22.88
2019-05-21T07:28:38.717Z,22.85
2019-05-21T07:29:10.845Z,22.84
2019-05-21T07:29:42.977Z,22.85
2019-05-21T07:30:15.028Z,22.82
2019-05-21T07:30:47.147Z,22.82
2019-05-21T07:31:19.247Z,22.86
2019-05-21T07:31:51.367Z,22.88
2019-05-21T07:32:23.402Z,22.89
2019-05-21T07:32:55.578Z,22.86
2019-05-21T07:33:27.760Z,22.82
2019-05-21T07:33:59.882Z,22.91
2019-05-21T07:34:32.022Z,22.91
2019-05-21T07:35:04.122Z,22.88
2019-05-21T07:35:36.234Z,22.78
2019-05-21T07:36:08.364Z,22.92
2019-05-21T07:36:40.480Z,22.91
2019-05-21T07:37:12.661Z,22.89
2019-05-21T07:37:44.715Z,22.92
2019-05-21T07:38:16.834Z,22.94
2019-05-21T07:38:53.976Z,22.94
2019-05-21T07:39:26.260Z,22.89
2019-05-21T07:39:58.338Z,22.94
2019-05-21T07:40:30.460Z,22.96
2019-05-21T07:41:02.726Z,22.94
2019-05-21T07:41:34.823Z,22.88
2019-05-21T07:42:06.927Z,22.88
2019-05-21T07:42:39.137Z,22.96
2019-05-21T07:43:11.294Z,22.88
2019-05-21T07:43:43.338Z,22.94
2019-05-21T07:44:15.489Z,22.92
2019-05-21T07:44:47.600Z,22.91
2019-05-21T07:45:19.708Z,22.91
2019-05-21T07:45:51.803Z,22.96
2019-05-21T07:46:23.867Z,23.01
2019-05-21T07:46:55.962Z,22.94
2019-05-21T07:47:28.094Z,23.03
2019-05-21T07:48:00.196Z,22.97
2019-05-21T07:48:32.313Z,23.01
2019-05-21T07:49:04.360Z,22.96
2019-05-21T07:49:36.547Z,23.01
2019-05-21T07:50:08.633Z,22.97
2019-05-21T07:50:40.758Z,23
2019-05-21T07:51:12.870Z,23.06
2019-05-21T07:51:44.948Z,23.03
2019-05-21T07:52:17.055Z,23.04
2019-05-21T07:52:49.142Z,22.99
2019-05-21T07:53:21.316Z,23.06
2019-05-21T07:53:53.364Z,23.04
2019-05-21T07:54:28.007Z,23.03
2019-05-21T07:55:00.201Z,23.06
2019-05-21T07:55:32.307Z,23.04
2019-05-21T07:56:04.357Z,23.01
2019-05-21T07:56:36.458Z,22.96
2019-05-21T07:57:08.692Z,23.03
2019-05-21T07:57:40.793Z,22.97
2019-05-21T07:58:12.889Z,23.01
2019-05-21T07:58:45.049Z,23.04
2019-05-21T07:59:17.149Z,23.09
2019-05-21T07:59:49.302Z,23.09
2019-05-21T08:00:21.446Z,23.03
2019-05-21T08:00:53.537Z,23.07
2019-05-21T08:01:25.720Z,23.07
2019-05-21T08:01:57.837Z,23.07
2019-05-21T08:02:29.949Z,23.03
2019-05-21T08:03:02.053Z,23.09
2019-05-21T08:03:34.154Z,22.99
2019-05-21T08:04:06.357Z,23.12
2019-05-21T08:04:38.820Z,22.99
2019-05-21T08:05:10.920Z,23.12
2019-05-21T08:05:43.024Z,23.07
2019-05-21T08:06:15.303Z,23.07
2019-05-21T08:06:47.442Z,23.07
2019-05-21T08:07:19.578Z,23.06
2019-05-21T08:07:51.675Z,23.09
2019-05-21T08:08:23.727Z,23.03
2019-05-21T08:09:11.293Z,23.09
2019-05-21T08:09:46.487Z,23.06
2019-05-21T08:10:18.608Z,23.06
2019-05-21T08:10:50.840Z,23.1
2019-05-21T08:11:22.953Z,22.99
2019-05-21T08:11:55.022Z,23.07
2019-05-21T08:12:37.754Z,23.12
2019-05-21T08:13:11.687Z,23.12
2019-05-21T08:13:43.730Z,23.01
2019-05-21T08:14:15.835Z,23.15
2019-05-21T08:14:47.948Z,23.06
2019-05-21T08:15:20.055Z,23.06
2019-05-21T08:15:52.211Z,23.1
2019-05-21T08:16:24.308Z,23.07
2019-05-21T08:16:56.493Z,23.07
2019-05-21T08:17:28.590Z,23.06
2019-05-21T08:18:00.723Z,23.07
2019-05-21T08:18:32.818Z,23.06
2019-05-21T08:19:04.863Z,23.07
2019-05-21T08:19:36.973Z,23.07
2019-05-21T08:20:10.361Z,23.06
2019-05-21T08:20:42.923Z,23.03
2019-05-21T08:21:14.970Z,23.15
2019-05-21T08:21:47.056Z,23.12
2019-05-21T08:22:19.175Z,23.14
2019-05-21T08:22:51.286Z,23.1
2019-05-21T08:23:23.361Z,23.19
2019-05-21T08:23:55.490Z,23.16
2019-05-21T08:24:27.642Z,23.03
2019-05-21T08:24:59.760Z,23.06
2019-05-21T08:25:31.882Z,23.1
2019-05-21T08:26:03.926Z,23.22
2019-05-21T08:26:36.023Z,23.19
2019-05-21T08:27:08.196Z,23.24
2019-05-21T08:27:40.304Z,23.26
2019-05-21T08:28:12.404Z,23.24
2019-05-21T08:28:44.492Z,23.22
2019-05-21T08:29:16.575Z,23.22
2019-05-21T08:29:48.696Z,23.19
2019-05-21T08:30:20.801Z,23.29
2019-05-21T08:30:52.925Z,23.19
2019-05-21T08:31:24.994Z,23.26
2019-05-21T08:31:57.087Z,23.28
2019-05-21T08:32:29.180Z,23.21
2019-05-21T08:33:01.300Z,23.24
2019-05-21T08:33:33.446Z,23.26
2019-05-21T08:34:05.620Z,23.21
2019-05-21T08:34:37.804Z,23.25
2019-05-21T08:35:10.158Z,23.25
2019-05-21T08:35:42.311Z,23.21
2019-05-21T08:36:14.430Z,23.28
2019-05-21T08:36:46.550Z,23.21
2019-05-21T08:37:18.656Z,23.24
2019-05-21T08:37:50.805Z,23.29
2019-05-21T08:38:22.940Z,23.32
2019-05-21T08:38:54.998Z,23.26
2019-05-21T08:39:29.048Z,23.28
2019-05-21T08:40:01.458Z,23.35
2019-05-21T08:40:33.722Z,23.35
2019-05-21T08:41:05.903Z,23.44
2019-05-21T08:41:38.003Z,23.42
2019-05-21T08:42:10.110Z,23.32
2019-05-21T08:42:42.207Z,23.37
2019-05-21T08:43:14.292Z,23.41
2019-05-21T08:43:46.413Z,23.38
2019-05-21T08:44:18.519Z,23.32
2019-05-21T08:44:50.628Z,23.38
2019-05-21T08:45:22.766Z,23.38
2019-05-21T08:45:54.810Z,23.29
2019-05-21T08:46:26.908Z,23.29
2019-05-21T08:46:58.996Z,23.38
2019-05-21T08:47:31.111Z,23.4
2019-05-21T08:48:03.241Z,23.4
2019-05-21T08:48:35.378Z,23.4
2019-05-21T08:49:07.480Z,23.41
2019-05-21T08:49:39.584Z,23.41
2019-05-21T08:50:15.501Z,23.4
2019-05-21T08:50:47.600Z,23.42
2019-05-21T08:51:19.690Z,23.44
2019-05-21T08:51:51.857Z,23.44
2019-05-21T08:52:23.902Z,23.44
2019-05-21T08:52:56.025Z,23.47
2019-05-21T08:53:28.149Z,23.47
2019-05-21T08:54:00.253Z,23.47
2019-05-21T08:54:32.422Z,23.42
2019-05-21T08:55:04.534Z,23.48
2019-05-21T08:55:36.684Z,23.44
2019-05-21T08:56:08.817Z,23.52
2019-05-21T08:56:40.934Z,23.5
2019-05-21T08:57:13.044Z,23.57
2019-05-21T08:57:45.122Z,23.55
2019-05-21T08:58:17.252Z,23.6
2019-05-21T08:58:49.371Z,23.56
2019-05-21T08:59:21.518Z,23.57
2019-05-21T08:59:53.573Z,23.55
2019-05-21T09:00:25.851Z,23.62
2019-05-21T09:00:57.972Z,23.62
2019-05-21T09:01:30.089Z,23.6
2019-05-21T09:02:02.202Z,23.67
2019-05-21T09:02:34.300Z,23.7
2019-05-21T09:03:06.412Z,23.7
2019-05-21T09:03:38.538Z,23.71
2019-05-21T09:04:10.666Z,23.78
2019-05-21T09:04:46.131Z,23.72
2019-05-21T09:05:50.396Z,23.75
2019-05-21T09:06:22.408Z,23.79
2019-05-21T09:06:54.534Z,23.82
2019-05-21T09:07:26.655Z,23.82
2019-05-21T09:07:58.760Z,23.75
2019-05-21T09:08:30.833Z,23.79
2019-05-21T09:09:02.943Z,23.96
2019-05-21T09:09:48.925Z,23.87
2019-05-21T09:10:23.608Z,23.85
2019-05-21T09:10:55.734Z,23.96
2019-05-21T09:11:27.844Z,23.93
2019-05-21T09:11:59.995Z,23.92
2019-05-21T09:12:32.115Z,23.94
2019-05-21T09:13:04.356Z,23.92
2019-05-21T09:13:36.455Z,23.93
2019-05-21T09:14:08.569Z,23.99
2019-05-21T09:14:40.615Z,23.93
2019-05-21T09:15:12.776Z,23.97
2019-05-21T09:15:45.011Z,24.03
2019-05-21T09:16:17.273Z,24.08
2019-05-21T09:16:49.350Z,24.12
2019-05-21T09:17:21.486Z,24.04
2019-05-21T09:17:53.733Z,24.12
2019-05-21T09:18:25.825Z,24.11
2019-05-21T09:18:57.923Z,24.08
2019-05-21T09:19:30.064Z,24.15
2019-05-21T09:20:02.310Z,24.19
2019-05-21T09:20:34.856Z,24.15
2019-05-21T09:21:06.983Z,24.14
2019-05-21T09:21:39.100Z,24.18
2019-05-21T09:22:11.213Z,24.22
2019-05-21T09:22:43.382Z,24.26
2019-05-21T09:23:15.495Z,24.15
2019-05-21T09:23:47.664Z,24.24
2019-05-21T09:24:19.783Z,24.27
2019-05-21T09:24:51.870Z,24.29
2019-05-21T09:25:24.017Z,24.29
2019-05-21T09:25:56.140Z,24.3
2019-05-21T09:26:28.266Z,24.33
2019-05-21T09:27:00.318Z,24.29
2019-05-21T09:27:32.434Z,24.39
2019-05-21T09:28:04.554Z,24.33
2019-05-21T09:28:36.693Z,24.3
2019-05-21T09:29:08.800Z,24.36
2019-05-21T09:29:40.866Z,24.3
2019-05-21T09:30:12.963Z,24.29
2019-05-21T09:30:45.059Z,24.42
2019-05-21T09:31:17.164Z,24.32
2019-05-21T09:31:49.268Z,24.3
2019-05-21T09:32:24.128Z,24.45
2019-05-21T09:32:56.285Z,24.32
2019-05-21T09:33:28.414Z,24.39
2019-05-21T09:34:00.465Z,24.42
2019-05-21T09:34:47.322Z,24.32
2019-05-21T09:35:21.177Z,24.37
2019-05-21T09:35:53.291Z,24.39
2019-05-21T09:36:25.476Z,24.42
2019-05-21T09:36:57.593Z,24.36
2019-05-21T09:37:29.719Z,24.44
2019-05-21T09:38:01.828Z,24.39
2019-05-21T09:38:33.923Z,24.39
2019-05-21T09:39:06.011Z,24.33
2019-05-21T09:39:38.111Z,24.33
2019-05-21T09:40:10.207Z,24.45
2019-05-21T09:40:42.318Z,24.37
2019-05-21T09:41:14.437Z,24.39
2019-05-21T09:41:46.544Z,24.39
2019-05-21T09:42:18.655Z,24.39
2019-05-21T09:42:50.731Z,24.44
2019-05-21T09:43:22.832Z,24.36
2019-05-21T09:43:54.926Z,24.39
2019-05-21T09:44:27.052Z,24.39
2019-05-21T09:44:59.143Z,24.32
2019-05-21T09:45:31.265Z,24.45
2019-05-21T09:46:03.373Z,24.39
2019-05-21T09:46:35.469Z,24.42
2019-05-21T09:47:07.576Z,24.29
2019-05-21T09:47:39.679Z,24.29
2019-05-21T09:48:11.804Z,24.36
2019-05-21T09:48:44.006Z,24.36
2019-05-21T09:49:16.117Z,24.37
2019-05-21T09:49:48.241Z,24.36
2019-05-21T09:50:20.294Z,24.37
2019-05-21T09:50:52.403Z,24.29
2019-05-21T09:51:24.507Z,24.32
2019-05-21T09:51:56.621Z,24.29
2019-05-21T09:52:28.743Z,24.29
2019-05-21T09:53:00.814Z,24.3
2019-05-21T09:53:33.023Z,24.27
2019-05-21T09:54:05.171Z,24.26
2019-05-21T09:54:37.321Z,24.26
2019-05-21T09:55:09.405Z,24.33
2019-05-21T09:55:41.525Z,24.26
2019-05-21T09:56:13.635Z,24.27
2019-05-21T09:56:45.735Z,24.3
2019-05-21T09:57:17.829Z,24.24
2019-05-21T09:57:49.877Z,24.26
2019-05-21T09:58:21.997Z,24.19
2019-05-21T09:58:54.143Z,24.27
2019-05-21T09:59:26.254Z,24.29
2019-05-21T09:59:58.417Z,24.21
2019-05-21T10:00:30.765Z,24.21
2019-05-21T10:01:02.889Z,24.3
2019-05-21T10:01:35.015Z,24.22
2019-05-21T10:02:07.165Z,24.21
2019-05-21T10:02:39.220Z,24.21
2019-05-21T10:03:11.331Z,24.24
2019-05-21T10:03:43.509Z,24.22
2019-05-21T10:04:16.048Z,24.29
2019-05-21T10:04:48.160Z,24.27
2019-05-21T10:05:20.217Z,24.21
2019-05-21T10:05:52.339Z,24.21
2019-05-21T10:06:24.451Z,24.21
2019-05-21T10:06:56.582Z,24.26
2019-05-21T10:07:38.734Z,24.19
2019-05-21T10:08:12.577Z,24.21
2019-05-21T10:08:44.698Z,24.21
2019-05-21T10:09:16.811Z,24.24
2019-05-21T10:09:48.902Z,24.18
2019-05-21T10:10:20.989Z,24.18
2019-05-21T10:10:53.100Z,24.21
2019-05-21T10:11:25.215Z,24.26
2019-05-21T10:11:57.313Z,24.21
2019-05-21T10:12:29.419Z,24.18
2019-05-21T10:13:01.520Z,24.26
2019-05-21T10:13:33.625Z,24.21
2019-05-21T10:14:05.736Z,24.18
2019-05-21T10:14:37.846Z,24.26
2019-05-21T10:15:09.912Z,24.17
2019-05-21T10:15:42.028Z,24.24
2019-05-21T10:16:14.208Z,24.17
2019-05-21T10:16:46.317Z,24.15
2019-05-21T10:17:18.434Z,24.18
2019-05-21T10:17:50.482Z,24.21
2019-05-21T10:18:22.597Z,24.22
2019-05-21T10:18:54.695Z,24.18
2019-05-21T10:19:26.785Z,24.21
2019-05-21T10:19:59.149Z,24.15
2019-05-21T10:20:31.214Z,24.11
2019-05-21T10:21:03.330Z,24.19
2019-05-21T10:21:35.464Z,24.11
2019-05-21T10:22:07.760Z,24.12
2019-05-21T10:22:41.705Z,24.12
2019-05-21T10:23:13.824Z,24.15
2019-05-21T10:23:45.978Z,24.12
2019-05-21T10:24:18.331Z,24.14
2019-05-21T10:24:50.390Z,24.04
2019-05-21T10:25:22.506Z,24.12
2019-05-21T10:25:54.608Z,24.08
2019-05-21T10:26:26.717Z,24.07
2019-05-21T10:26:58.855Z,24.12
2019-05-21T10:27:34.657Z,24.08
2019-05-21T10:28:06.761Z,24.09
2019-05-21T10:28:38.851Z,24.08
2019-05-21T10:29:11.023Z,24.08
2019-05-21T10:29:43.118Z,24.08
2019-05-21T10:30:15.211Z,24.07
2019-05-21T10:30:47.353Z,24
2019-05-21T10:31:19.396Z,24.07
2019-05-21T10:31:51.503Z,23.94
2019-05-21T10:32:23.592Z,24
2019-05-21T10:32:55.748Z,23.96
2019-05-21T10:33:27.831Z,24
2019-05-21T10:33:59.918Z,24.02
2019-05-21T10:34:32.016Z,24
2019-05-21T10:35:04.627Z,23.96
2019-05-21T10:35:37.921Z,24.03
2019-05-21T10:36:09.978Z,23.92
2019-05-21T10:36:42.063Z,23.94
2019-05-21T10:37:14.169Z,24.02
2019-05-21T10:37:54.269Z,23.92
2019-05-21T10:38:27.351Z,23.96
2019-05-21T10:38:59.396Z,23.93
2019-05-21T10:39:31.522Z,23.96
2019-05-21T10:40:03.641Z,24.03
2019-05-21T10:40:35.743Z,24.02
2019-05-21T10:41:07.851Z,23.99
2019-05-21T10:41:39.909Z,24.02
2019-05-21T10:42:12.003Z,23.9
2019-05-21T10:42:44.150Z,23.89
2019-05-21T10:43:16.272Z,23.92
2019-05-21T10:43:48.386Z,23.92
2019-05-21T10:44:20.421Z,23.89
2019-05-21T10:44:52.565Z,23.92
2019-05-21T10:45:24.681Z,23.9
2019-05-21T10:45:56.788Z,23.96
2019-05-21T10:46:28.906Z,23.84
2019-05-21T10:47:00.997Z,23.85
2019-05-21T10:47:33.127Z,23.82
2019-05-21T10:48:05.236Z,23.92
2019-05-21T10:48:37.362Z,23.93
2019-05-21T10:49:09.412Z,23.89
2019-05-21T10:49:41.526Z,23.85
2019-05-21T10:50:13.632Z,23.99
2019-05-21T10:50:45.771Z,23.9
2019-05-21T10:51:17.877Z,23.81
2019-05-21T10:51:49.920Z,23.81
2019-05-21T10:52:22.024Z,23.74
2019-05-21T10:52:54.166Z,23.84
2019-05-21T10:53:26.289Z,23.84
2019-05-21T10:53:58.514Z,23.85
2019-05-21T10:54:30.664Z,23.85
2019-05-21T10:55:02.770Z,23.82
2019-05-21T10:55:34.888Z,23.79
2019-05-21T10:56:06.993Z,23.84
2019-05-21T10:56:47.715Z,23.79
2019-05-21T10:57:20.395Z,23.75
2019-05-21T10:57:52.566Z,23.79
2019-05-21T10:58:24.687Z,23.78
2019-05-21T10:58:56.788Z,23.72
2019-05-21T10:59:28.899Z,23.79
2019-05-21T11:00:00.961Z,23.77
2019-05-21T11:00:33.519Z,23.77
2019-05-21T11:01:05.636Z,23.79
2019-05-21T11:01:37.765Z,23.74
2019-05-21T11:02:09.819Z,23.72
2019-05-21T11:02:41.967Z,23.71
2019-05-21T11:03:14.190Z,23.75
2019-05-21T11:03:46.337Z,23.74
2019-05-21T11:04:18.438Z,23.75
2019-05-21T11:04:50.478Z,23.75
2019-05-21T11:05:22.598Z,23.75
2019-05-21T11:06:08.828Z,23.7
2019-05-21T11:06:42.383Z,23.74
2019-05-21T11:07:14.483Z,23.71
2019-05-21T11:07:46.660Z,23.67
2019-05-21T11:08:23.808Z,23.74
2019-05-21T11:08:57.229Z,23.66
2019-05-21T11:09:29.279Z,23.71
2019-05-21T11:10:01.464Z,23.7
2019-05-21T11:10:33.862Z,23.67
2019-05-21T11:11:05.968Z,23.74
2019-05-21T11:11:38.079Z,23.66
2019-05-21T11:12:10.209Z,23.7
2019-05-21T11:12:42.314Z,23.66
2019-05-21T11:13:14.406Z,23.64
2019-05-21T11:13:46.522Z,23.66
2019-05-21T11:14:18.657Z,23.64
2019-05-21T11:14:50.720Z,23.7
2019-05-21T11:15:22.829Z,23.71
2019-05-21T11:15:55.058Z,23.63
2019-05-21T11:16:27.175Z,23.66
2019-05-21T11:16:59.221Z,23.6
2019-05-21T11:17:31.340Z,23.67
2019-05-21T11:18:42.839Z,23.63
2019-05-21T11:19:14.952Z,23.57
2019-05-21T11:19:47.081Z,23.63
2019-05-21T11:20:19.134Z,23.56
2019-05-21T11:20:51.680Z,23.56
2019-05-21T11:21:24.056Z,23.57
2019-05-21T11:21:56.158Z,23.62
2019-05-21T11:22:28.287Z,23.6
2019-05-21T11:23:00.363Z,23.57
2019-05-21T11:23:32.509Z,23.6
2019-05-21T11:24:04.992Z,23.59
2019-05-21T11:24:37.367Z,23.57
2019-05-21T11:25:09.431Z,23.59
2019-05-21T11:25:41.535Z,23.53
2019-05-21T11:26:13.640Z,23.5
2019-05-21T11:26:45.799Z,23.57
2019-05-21T11:27:17.922Z,23.57
2019-05-21T11:27:50.026Z,23.56
2019-05-21T11:28:22.406Z,23.5
2019-05-21T11:28:54.570Z,23.6
2019-05-21T11:29:26.674Z,23.56
2019-05-21T11:29:58.968Z,23.57
2019-05-21T11:30:31.108Z,23.55
2019-05-21T11:31:03.437Z,23.59
2019-05-21T11:31:35.537Z,23.56
2019-05-21T11:32:07.647Z,23.6
2019-05-21T11:32:39.688Z,23.55
2019-05-21T11:33:11.813Z,23.5
2019-05-21T11:33:43.939Z,23.48
2019-05-21T11:34:16.080Z,23.6
2019-05-21T11:34:50.124Z,23.56
2019-05-21T11:35:22.569Z,23.57
2019-05-21T11:35:54.667Z,23.52
2019-05-21T11:36:26.768Z,23.59
2019-05-21T11:36:58.881Z,23.53
2019-05-21T11:37:30.998Z,23.52
2019-05-21T11:38:03.777Z,23.57
2019-05-21T11:38:39.736Z,23.5
2019-05-21T11:39:12.393Z,23.59
2019-05-21T11:39:44.494Z,23.57
2019-05-21T11:40:16.663Z,23.47
2019-05-21T11:40:51.109Z,23.48
2019-05-21T11:41:23.405Z,23.48
2019-05-21T11:41:55.507Z,23.44
2019-05-21T11:42:27.626Z,23.48
2019-05-21T11:42:59.778Z,23.52
2019-05-21T11:43:31.910Z,23.47
2019-05-21T11:44:04.015Z,23.45
2019-05-21T11:44:36.153Z,23.47
2019-05-21T11:45:08.287Z,23.45
2019-05-21T11:45:40.397Z,23.5
2019-05-21T11:46:12.496Z,23.44
2019-05-21T11:46:44.629Z,23.45
2019-05-21T11:47:16.813Z,23.44
2019-05-21T11:47:48.922Z,23.45
2019-05-21T11:48:20.978Z,23.44
2019-05-21T11:48:53.075Z,23.44
2019-05-21T11:49:25.234Z,23.48
2019-05-21T11:49:57.376Z,23.45
2019-05-21T11:50:29.440Z,23.44
2019-05-21T11:51:01.566Z,23.44
2019-05-21T11:51:33.689Z,23.44
2019-05-21T11:52:05.799Z,23.44
2019-05-21T11:52:37.919Z,23.47
2019-05-21T11:53:09.974Z,23.45
2019-05-21T11:53:42.067Z,23.47
2019-05-21T11:54:14.173Z,23.41
2019-05-21T11:54:46.296Z,23.47
2019-05-21T11:55:18.405Z,23.44
2019-05-21T11:55:50.453Z,23.42
2019-05-21T11:56:22.599Z,23.45
2019-05-21T11:56:54.715Z,23.44
2019-05-21T11:57:26.822Z,23.41
2019-05-21T11:57:58.931Z,23.45
2019-05-21T11:58:30.997Z,23.34
2019-05-21T11:59:03.194Z,23.37
2019-05-21T11:59:46.606Z,23.45
2019-05-21T12:00:53.927Z,23.44
2019-05-21T12:01:27.080Z,23.42
2019-05-21T12:02:02.798Z,23.42
2019-05-21T12:02:36.030Z,23.38
2019-05-21T12:03:08.131Z,23.41
2019-05-21T12:03:40.291Z,23.4
2019-05-21T12:04:12.460Z,23.28
2019-05-21T12:04:45.016Z,23.37
2019-05-21T12:05:19.347Z,23.38
2019-05-21T12:05:52.089Z,23.35
2019-05-21T12:06:26.813Z,23.37
2019-05-21T12:07:02.850Z,23.4
2019-05-21T12:07:37.150Z,23.4
2019-05-21T12:08:12.572Z,23.37
